Pagina principale
METAR-TAF:

METAR-TAF

Aeroporti :

Aeroporto Internazionale del Bahrein

Bahrain, Bahrain

latitudine: 26-16N, longitudine: 050-39E, altezza: 2 m

Osservazione

Il bollettino è stato emesso 10 minuti fa, alle 08:30 UTC
Vento 20 kt da ovest/nord-ovest
Temperature 21°C
Umidità 46%
Pressione 1017 hPa
Visibilità 10 km o più
Poco nuvoloso ad un'altezza di 3000 ft

METAR: OBBI 210830Z 30020KT 9999 FEW030 21/09 Q1017 NOSIG

Ora: 11:40 (08:40 UTC)

Previsione

Il bollettino è stato emesso 3 ore e 40 minuti fa, alle 05:00 UTC
Previsione valida dal 21 alle 06 UTC al 22 alle 12 UTC
Vento 18 kt da nord/nord-ovest con raffiche fino a 28 kt
Visibilità 10 km o più
Poco nuvoloso ad un'altezza di 3000 ft
Evoluzione graduale
dal 21 alle 16 UTC al 21 alle 18 UTC
Vento 12 kt da nord/nord-ovest

TAF: OBBI 210500Z 2106/2212 33018G28KT 9999 FEW030 BECMG 2116/2118 33012KT

Osservazioni e previsioni meteorologiche di più di 4000 aeroporti (messaggi METAR e TAF).

Le stazioni disponibili sono rappresentate dai dischi gialli e rossi sulla carta.

Puntare il mouse per vedere il nome della stazione.

Clicca sopra per visualizzare le osservazioni e previsioni meteorologiche.

Per cambiare la mappa : fare clic sui pulsanti verdi con una croce nera per ingrandire, il pulsante verde con un trattino per diminuire, o sulla freccia verde per le mappe adiacenti.


METAR-TAF: